Latest Coastal Weather Observations for Lucinda

IDQ60701

Issued at 11:02 am EST Friday 24 May 2024 (issued every 10 minutes, with the page automatically refreshed every 10 minutes)

About coastal observations | Map of coastal stations | Coastal observations for QLD | Marine services | Other Formats
Station Details ID: 032141 Name: LUCINDA POINT Lat: -18.52 Lon: 146.39 Height: 10.0 m
Data from the previous 72 hours. | See also: Recent months at Lucinda
Date/Time
EST
Wind Sea
Height
m
Swell Vis
km
Cloud Weather Temp
°C
Press
MSL
hPa
Rain since
9am
mm
Dir  Spd
kts
Gust
kts
Height
m
Period
s
Dir
24/11:00am SE 9 16 - - - - - - - - 1018.3 -
24/10:30am ESE 11 19 - - - - - - - - 1018.4 -
24/10:00am SSE 8 16 - - - - - - - - 1018.4 -
24/09:30am SSE 8 13 - - - - - - - - 1018.4 -
24/09:00am SE 9 16 - - - - - - - - 1018.3 -
24/08:30am SSE 7 11 - - - - - - - - 1018.0 -
24/08:00am S 9 13 - - - - - - - - 1018.0 -
24/07:30am S 11 16 - - - - - - - - 1017.9 -
24/07:00am SE 13 23 - - - - - - - - 1017.6 -
24/06:30am SE 11 18 - - - - - - - - 1017.1 -
24/06:00am S 9 14 - - - - - - - - 1016.9 -
24/05:30am S 9 13 - - - - - - - - 1016.9 -
24/05:00am S 10 13 - - - - - - - - 1016.6 -
24/04:30am S 8 11 - - - - - - - - 1016.8 -
24/04:00am S 8 13 - - - - - - - - 1016.8 -
24/03:30am S 12 17 - - - - - - - - 1016.9 -
24/03:00am SSE 9 15 - - - - - - - - 1016.9 -
24/02:30am ENE 17 22 - - - - - - - - 1017.2 -
24/02:05am ESE 19 31 - - - - - - - - 1017.6 -
24/02:00am ESE 17 23 - - - - - - - - 1017.6 -
24/01:36am ESE 15 25 - - - - - - - - 1017.6 -
24/01:30am ESE 13 23 - - - - - - - - 1017.7 -
24/01:00am SE 9 17 - - - - - - - - 1018.0 -
24/12:30am SE 11 18 - - - - - - - - 1018.0 -
24/12:00am SE 14 23 - - - - - - - - 1018.2 -
 
Date/Time
EST
Wind Sea
Height
m
Swell Vis
km
Cloud Weather Temp
°C
Press
MSL
hPa
Rain since
9am
mm
Dir  Spd
kts
Gust
kts
Height
m
Period
s
Dir
23/11:49pm SE 14 29 - - - - - - - - 1018.3 -
23/11:47pm SE 13 29 - - - - - - - - 1018.3 -
23/11:30pm SE 9 15 - - - - - - - - 1018.4 -
23/11:00pm SE 11 17 - - - - - - - - 1018.6 -
23/10:30pm ESE 15 23 - - - - - - - - 1018.7 -
23/10:00pm ESE 22 37 - - - - - - - - 1018.5 -
23/09:52pm ESE 19 37 - - - - - - - - 1018.2 -
23/09:30pm SE 16 26 - - - - - - - - 1018.3 -
23/09:02pm SE 15 25 - - - - - - - - 1018.4 -
23/09:00pm SE 15 23 - - - - - - - - 1018.3 -
23/08:30pm ESE 16 26 - - - - - - - - 1018.1 -
23/08:20pm SE 15 25 - - - - - - - - 1017.9 -
23/08:00pm SE 15 24 - - - - - - - - 1017.9 -
23/07:48pm SE 15 25 - - - - - - - - 1017.9 -
23/07:30pm ESE 13 23 - - - - - - - - 1017.7 -
23/07:00pm SE 15 21 - - - - - - - - 1017.6 -
23/06:30pm SE 13 22 - - - - - - - - 1017.4 -
23/06:00pm SE 12 18 - - - - - - - - 1017.4 -
23/05:30pm SE 15 22 - - - - - - - - 1017.2 -
23/05:02pm SE 15 25 - - - - - - - - 1017.0 -
23/05:00pm SE 14 25 - - - - - - - - 1017.0 -
23/04:30pm SE 13 22 - - - - - - - - 1016.8 -
23/04:00pm SE 13 22 - - - - - - - - 1016.7 -
23/03:30pm SE 13 21 - - - - - - - - 1016.7 -
23/03:00pm SE 11 18 - - - - - - - - 1016.7 -
23/02:30pm SE 11 19 - - - - - - - - 1016.7 -
23/02:00pm SSE 11 21 - - - - - - - - 1016.9 -
23/01:30pm SSE 11 19 - - - - - - - - 1017.3 -
23/01:00pm SE 8 14 - - - - - - - - 1017.6 -
23/12:30pm SSE 9 16 - - - - - - - - 1018.0 -
23/12:00pm S 9 13 - - - - - - - - 1018.2 -
23/11:30am S 9 13 - - - - - - - - 1018.5 -
23/11:00am S 10 15 - - - - - - - - 1018.6 -
23/10:30am S 13 19 - - - - - - - - 1018.7 -
23/10:00am S 12 17 - - - - - - - - 1018.7 -
23/09:30am S 11 16 - - - - - - - - 1018.8 -
23/09:00am S 11 15 - - - - - - - - 1018.6 -
23/08:30am S 10 14 - - - - - - - - 1018.4 -
23/08:00am SSE 9 14 - - - - - - - - 1018.1 -
23/07:30am SSE 9 13 - - - - - - - - 1017.7 -
23/07:00am SSE 9 14 - - - - - - - - 1017.3 -
23/06:30am SSE 10 15 - - - - - - - - 1016.9 -
23/06:00am SSE 9 17 - - - - - - - - 1016.8 -
23/05:30am SSE 9 12 - - - - - - - - 1016.5 -
23/05:00am SSE 9 13 - - - - - - - - 1016.3 -
23/04:30am S 13 19 - - - - - - - - 1016.2 -
23/04:00am SSE 8 14 - - - - - - - - 1016.4 -
23/03:30am S 10 15 - - - - - - - - 1016.3 -
23/03:00am SSE 11 17 - - - - - - - - 1016.1 -
23/02:30am SE 14 21 - - - - - - - - 1016.3 -
23/02:00am SE 13 21 - - - - - - - - 1016.5 -
23/01:30am SE 12 19 - - - - - - - - 1016.8 -
23/01:00am SE 13 22 - - - - - - - - 1017.0 -
23/12:30am SE 14 21 - - - - - - - - 1017.1 -
23/12:00am ESE 15 21 - - - - - - - - 1017.2 -
 
Date/Time
EST
Wind Sea
Height
m
Swell Vis
km
Cloud Weather Temp
°C
Press
MSL
hPa
Rain since
9am
mm
Dir  Spd
kts
Gust
kts
Height
m
Period
s
Dir
22/11:30pm ESE 13 21 - - - - - - - - 1017.5 -
22/11:00pm SE 14 24 - - - - - - - - 1017.6 -
22/10:30pm ESE 13 23 - - - - - - - - 1017.8 -
22/10:00pm ESE 13 21 - - - - - - - - 1017.9 -
22/09:30pm SE 13 22 - - - - - - - - 1017.9 -
22/09:00pm SE 14 22 - - - - - - - - 1018.1 -
22/08:30pm SE 14 22 - - - - - - - - 1018.0 -
22/08:00pm ESE 13 20 - - - - - - - - 1017.8 -
22/07:30pm ESE 12 21 - - - - - - - - 1017.5 -
22/07:00pm SE 11 18 - - - - - - - - 1017.2 -
22/06:30pm SE 11 22 - - - - - - - - 1016.9 -
22/06:00pm SE 11 17 - - - - - - - - 1016.8 -
22/05:30pm SE 12 18 - - - - - - - - 1016.6 -
22/05:00pm SE 12 19 - - - - - - - - 1016.3 -
22/04:30pm SE 9 17 - - - - - - - - 1016.0 -
22/04:00pm SE 10 16 - - - - - - - - 1015.9 -
22/03:30pm ESE 8 13 - - - - - - - - 1015.9 -
22/03:00pm SE 10 15 - - - - - - - - 1016.0 -
22/02:30pm ESE 9 13 - - - - - - - - 1015.9 -
22/02:00pm SE 6 10 - - - - - - - - 1016.3 -
22/01:30pm S 8 11 - - - - - - - - 1016.6 -
22/01:00pm SE 9 15 - - - - - - - - 1017.0 -
22/12:30pm S 8 12 - - - - - - - - 1017.3 -
22/12:00pm S 13 15 - - - - - - - - 1017.6 -
22/11:30am S 15 17 - - - - - - - - 1017.9 -
22/11:00am S 16 19 - - - - - - - - 1018.2 -
22/10:30am S 16 19 - - - - - - - - 1018.4 -
22/10:00am S 15 17 - - - - - - - - 1018.6 -
22/09:30am S 15 19 - - - - - - - - 1018.6 -
22/09:00am S 10 15 - - - - - - - - 1018.4 -
22/08:30am S 13 19 - - - - - - - - 1018.2 -
22/08:00am S 11 15 - - - - - - - - 1018.0 -
22/07:30am S 9 14 - - - - - - - - 1017.8 -
22/07:00am S 10 15 - - - - - - - - 1017.5 -
22/06:30am S 15 21 - - - - - - - - 1017.0 -
22/06:00am S 19 23 - - - - - - - - 1016.8 -
22/05:30am S 20 23 - - - - - - - - 1016.4 -
22/05:00am S 20 23 - - - - - - - - 1016.2 -
22/04:30am S 18 21 - - - - - - - - 1016.0 -
22/04:28am S 18 21 - - - - - - - - 1016.0 -
22/04:00am SW 9 11 - - - - - - - - 1015.8 -
22/03:30am WSW 10 11 - - - - - - - - 1016.1 -
22/03:00am SW 10 11 - - - - - - - - 1016.2 -
22/02:30am WSW 10 11 - - - - - - - - 1016.3 -
22/02:00am WSW 9 11 - - - - - - - - 1016.7 -
22/01:30am WSW 10 11 - - - - - - - - 1017.1 -
22/01:00am WSW 9 10 - - - - - - - - 1017.3 -
22/12:30am WSW 10 11 - - - - - - - - 1017.5 -
22/12:00am WSW 11 12 - - - - - - - - 1017.8 -
 
Date/Time
EST
Wind Sea
Height
m
Swell Vis
km
Cloud Weather Temp
°C
Press
MSL
hPa
Rain since
9am
mm
Dir  Spd
kts
Gust
kts
Height
m
Period
s
Dir
21/11:30pm SW 11 13 - - - - - - - - 1018.1 -
21/11:00pm SW 10 11 - - - - - - - - 1018.3 -
21/10:30pm SW 11 13 - - - - - - - - 1018.4 -
21/10:00pm WSW 10 12 - - - - - - - - 1018.3 -
21/09:30pm SW 7 10 - - - - - - - - 1018.4 -
21/09:00pm WSW 7 8 - - - - - - - - 1018.4 -
21/08:30pm WSW 6 7 - - - - - - - - 1018.4 -
21/08:00pm WSW 6 7 - - - - - - - - 1018.1 -
21/07:30pm WSW 6 7 - - - - - - - - 1017.8 -
21/07:00pm SW 7 8 - - - - - - - - 1017.4 -
21/06:30pm S 5 8 - - - - - - - - 1017.0 -
21/06:00pm SE 6 10 - - - - - - - - 1016.9 -
21/05:30pm SSE 5 8 - - - - - - - - 1016.9 -
21/05:00pm SE 6 9 - - - - - - - - 1016.6 -
21/04:30pm SE 5 8 - - - - - - - - 1016.4 -
21/04:00pm SSE 5 8 - - - - - - - - 1016.3 -
21/03:30pm SE 6 8 - - - - - - - - 1016.4 -
21/03:00pm SE 5 9 - - - - - - - - 1016.3 -
21/02:30pm SSE 5 7 - - - - - - - - 1016.4 -
21/02:00pm S 5 8 - - - - - - - - 1016.6 -
21/01:30pm S 9 13 - - - - - - - - 1016.9 -
21/01:00pm S 13 16 - - - - - - - - 1017.2 -
21/12:30pm S 14 17 - - - - - - - - 1017.5 -
21/12:00pm S 16 20 - - - - - - - - 1017.7 -
21/11:30am S 16 19 - - - - - - - - 1018.0 -

Other formats

Comma delimited format used in spreadsheet applications
http://www.bom.gov.au/fwo/IDQ60701/IDQ60701.94295.axf

JavaScript Object Notation format (JSON) in row-major order
http://www.bom.gov.au/fwo/IDQ60701/IDQ60701.94295.json

Data quality

Most of these data are generated automatically and are frequently updated. Quality checks on data are not normally performed. It is possible for incorrect values to appear. Refer to information at About Latest Weather Observations and please check the disclaimer before using these data.